Terminal Aerodrome Forecast
Issued by NWS

Home | Current Version | Previous Version | Text Only | Print | Product List | Glossary On
Versions: 1 2 3 4 5 6 7 8 9 10 11 12 13
000
FTUS43 KILX 292321
TAFDEC
TAF
KDEC 292321Z 3000/3024 23008KT P6SM VCSH BKN120
     FM300900 20004KT 5SM BR OVC035
     FM301400 20005KT P6SM BKN035=

USA.gov is the U.S. government's official web portal to all federal, state and local government web resources and services.